Time;durP1;ratioP1;P1;durP2;ratioP2;P2;SDS_P1;SDS_P2;PMS_P1;PMS_P2;Temp;Humidity;BMP_temperature;BMP_pressure;BME280_temperature;BME280_humidity;BME280_pressure;Samples;Min_cycle;Max_cycle;Signal;HPM_P1;HPM_P2
2023/06/06 00:01:49;;;;;;;5.22;2.88;;;;;;;;;;5028960;28;20328;-79
2023/06/06 00:04:14;;;;;;;6.03;2.97;;;;;;;;;;5026803;28;20079;-79
2023/06/06 00:06:44;;;;;;;5.85;3.03;;;;;;;;;;5024962;28;20483;-79
2023/06/06 00:09:09;;;;;;;5.15;2.80;;;;;;;;;;5029053;28;20036;-79
2023/06/06 00:11:35;;;;;;;5.35;3.28;;;;;;;;;;5027488;28;20034;-79
2023/06/06 00:14:01;;;;;;;4.93;3.05;;;;;;;;;;5022835;28;20500;-79
2023/06/06 00:16:32;;;;;;;4.97;3.40;;;;;;;;;;5027687;28;20060;-79
2023/06/06 00:18:58;;;;;;;6.78;3.38;;;;;;;;;;5028514;28;20033;-79
2023/06/06 00:21:24;;;;;;;5.20;3.28;;;;;;;;;;5024384;28;20055;-79
2023/06/06 00:23:50;;;;;;;5.05;3.10;;;;;;;;;;5030276;28;20036;-80
2023/06/06 00:26:15;;;;;;;4.82;3.33;;;;;;;;;;5030161;28;20097;-79
2023/06/06 00:28:44;;;;;;;7.97;3.53;;;;;;;;;;5029701;28;20115;-79
2023/06/06 00:31:09;;;;;;;5.28;3.28;;;;;;;;;;5024767;28;20053;-79
2023/06/06 00:33:35;;;;;;;4.90;3.13;;;;;;;;;;5030790;28;20053;-79
2023/06/06 00:36:00;;;;;;;8.23;3.30;;;;;;;;;;5024722;28;20056;-79
2023/06/06 00:38:25;;;;;;;4.75;2.95;;;;;;;;;;5030533;28;20026;-79
2023/06/06 00:40:50;;;;;;;7.85;2.97;;;;;;;;;;5031100;28;20104;-79
2023/06/06 00:43:17;;;;;;;5.78;3.13;;;;;;;;;;5027762;28;20050;-79
2023/06/06 00:45:42;;;;;;;6.10;3.05;;;;;;;;;;5026578;28;20036;-80
2023/06/06 00:48:09;;;;;;;5.32;3.20;;;;;;;;;;5023486;28;20024;-80
2023/06/06 00:50:36;;;;;;;7.05;4.13;;;;;;;;;;5027870;28;20059;-79
2023/06/06 00:53:03;;;;;;;4.82;2.92;;;;;;;;;;5027793;28;20041;-79
2023/06/06 00:55:28;;;;;;;4.60;3.00;;;;;;;;;;5021608;28;20456;-79
2023/06/06 00:57:54;;;;;;;6.60;3.20;;;;;;;;;;5030364;28;20053;-79
2023/06/06 01:00:20;;;;;;;6.93;3.78;;;;;;;;;;5032869;28;20038;-79
2023/06/06 01:02:48;;;;;;;4.03;2.70;;;;;;;;;;5027869;28;20028;-79
2023/06/06 01:05:14;;;;;;;6.18;3.22;;;;;;;;;;5029532;28;20033;-80
2023/06/06 01:07:42;;;;;;;4.60;2.65;;;;;;;;;;5031810;28;20026;-79
2023/06/06 01:10:08;;;;;;;6.25;3.10;;;;;;;;;;5031912;28;20025;-79
2023/06/06 01:12:40;;;;;;;5.75;3.30;;;;;;;;;;5031152;28;20079;-79
2023/06/06 01:15:21;;;;;;;4.65;2.85;;;;;;;;;;5026486;28;20069;-79
2023/06/06 01:17:46;;;;;;;6.45;2.88;;;;;;;;;;5029226;28;20028;-79
2023/06/06 01:20:12;;;;;;;5.78;2.90;;;;;;;;;;5025708;28;20480;-80
2023/06/06 01:22:37;;;;;;;5.95;3.15;;;;;;;;;;5025483;28;20186;-79
2023/06/06 01:25:06;;;;;;;4.97;3.00;;;;;;;;;;5029269;28;20029;-79
2023/06/06 01:27:33;;;;;;;5.43;3.10;;;;;;;;;;5032890;28;20061;-80
2023/06/06 01:29:59;;;;;;;4.68;3.00;;;;;;;;;;5041599;28;20084;-80
2023/06/06 01:32:43;;;;;;;4.68;3.17;;;;;;;;;;5022431;28;20064;-80
2023/06/06 01:35:24;;;;;;;6.03;3.30;;;;;;;;;;5036412;28;20033;-79
2023/06/06 01:38:25;;;;;;;5.68;3.30;;;;;;;;;;5033047;28;20091;-80
2023/06/06 01:40:55;;;;;;;6.55;3.53;;;;;;;;;;4993147;28;20480;-80
2023/06/06 01:43:22;;;;;;;5.75;2.90;;;;;;;;;;5026240;28;20049;-80
2023/06/06 01:45:49;;;;;;;4.22;2.60;;;;;;;;;;5028619;28;20076;-80
2023/06/06 01:48:15;;;;;;;8.40;3.20;;;;;;;;;;5030918;28;20032;-79
2023/06/06 01:50:42;;;;;;;7.53;3.28;;;;;;;;;;5025486;28;20480;-79
2023/06/06 01:53:07;;;;;;;5.07;2.90;;;;;;;;;;5029137;28;20079;-79
2023/06/06 01:55:32;;;;;;;6.78;3.28;;;;;;;;;;5029752;28;20018;-79
2023/06/06 01:57:58;;;;;;;5.28;3.10;;;;;;;;;;5026913;28;20487;-78
2023/06/06 02:00:23;;;;;;;4.18;2.95;;;;;;;;;;5029810;28;20887;-79
2023/06/06 02:02:48;;;;;;;5.43;3.33;;;;;;;;;;5029397;28;20037;-79
2023/06/06 02:05:14;;;;;;;6.25;3.83;;;;;;;;;;5025414;28;20030;-79
2023/06/06 02:07:41;;;;;;;7.45;3.60;;;;;;;;;;5030701;28;20072;-79
2023/06/06 02:10:06;;;;;;;5.90;3.25;;;;;;;;;;5025185;28;20026;-79
2023/06/06 02:12:32;;;;;;;6.05;3.17;;;;;;;;;;5029427;28;20508;-79
2023/06/06 02:14:58;;;;;;;5.28;2.80;;;;;;;;;;5030883;28;20036;-79
2023/06/06 02:17:23;;;;;;;5.85;3.40;;;;;;;;;;5030824;28;20108;-79
2023/06/06 02:19:51;;;;;;;5.65;3.50;;;;;;;;;;5025528;28;20026;-79
2023/06/06 02:22:17;;;;;;;5.57;3.40;;;;;;;;;;5029883;28;20029;-79
2023/06/06 02:24:42;;;;;;;6.43;3.35;;;;;;;;;;5032102;28;20033;-79
2023/06/06 02:27:10;;;;;;;5.72;3.33;;;;;;;;;;5030461;28;20064;-80
2023/06/06 02:29:36;;;;;;;7.35;3.45;;;;;;;;;;5023444;28;20114;-80
2023/06/06 02:32:02;;;;;;;5.78;3.60;;;;;;;;;;5027717;28;20033;-79
2023/06/06 02:34:27;;;;;;;4.72;3.00;;;;;;;;;;5025349;28;20385;-79
2023/06/06 02:36:53;;;;;;;5.75;3.92;;;;;;;;;;5038839;28;20392;-80
2023/06/06 02:39:19;;;;;;;7.65;4.15;;;;;;;;;;5020785;28;20108;-79
2023/06/06 02:41:44;;;;;;;7.53;4.93;;;;;;;;;;5017891;28;20098;-79
2023/06/06 02:44:10;;;;;;;6.63;4.18;;;;;;;;;;5027039;28;20067;-80
2023/06/06 02:46:35;;;;;;;5.68;3.65;;;;;;;;;;5024346;28;20084;-79
2023/06/06 02:49:01;;;;;;;6.28;4.05;;;;;;;;;;5029540;28;20029;-79
2023/06/06 02:51:27;;;;;;;6.10;3.97;;;;;;;;;;5022481;28;20056;-79
2023/06/06 02:53:52;;;;;;;5.78;3.80;;;;;;;;;;5024122;28;20027;-79
2023/06/06 02:56:17;;;;;;;8.07;4.75;;;;;;;;;;5024588;28;20022;-79
2023/06/06 02:58:43;;;;;;;6.63;4.28;;;;;;;;;;5027377;28;20056;-79
2023/06/06 03:01:09;;;;;;;5.97;3.97;;;;;;;;;;5027590;28;20027;-79
2023/06/06 03:03:35;;;;;;;6.95;3.53;;;;;;;;;;5029700;28;20014;-79
2023/06/06 03:06:00;;;;;;;5.35;3.30;;;;;;;;;;5018806;28;20060;-80
2023/06/06 03:08:26;;;;;;;5.43;3.28;;;;;;;;;;5025287;28;20112;-79
2023/06/06 03:10:52;;;;;;;5.47;3.78;;;;;;;;;;5025346;28;20025;-79
2023/06/06 03:13:17;;;;;;;8.93;4.97;;;;;;;;;;5029709;28;20030;-79
2023/06/06 03:15:46;;;;;;;7.47;4.68;;;;;;;;;;5035149;28;20095;-79
2023/06/06 03:18:16;;;;;;;6.80;4.75;;;;;;;;;;5023730;28;20093;-80
2023/06/06 03:20:45;;;;;;;6.78;4.63;;;;;;;;;;5029396;28;20175;-78
2023/06/06 03:23:13;;;;;;;7.32;3.92;;;;;;;;;;5026355;28;20026;-80
2023/06/06 03:25:45;;;;;;;6.72;3.85;;;;;;;;;;5037044;28;20022;-79
2023/06/06 03:28:12;;;;;;;7.68;4.93;;;;;;;;;;5030401;28;20547;-80
2023/06/06 03:30:38;;;;;;;8.18;4.22;;;;;;;;;;5026544;28;20495;-80
2023/06/06 03:33:05;;;;;;;8.57;5.38;;;;;;;;;;5027074;28;20030;-80
2023/06/06 03:35:32;;;;;;;7.88;5.88;;;;;;;;;;5020696;28;20029;-80
2023/06/06 03:37:58;;;;;;;8.82;5.65;;;;;;;;;;5024818;28;20029;-79
2023/06/06 03:40:24;;;;;;;9.23;5.88;;;;;;;;;;5029468;28;20037;-79
2023/06/06 03:42:52;;;;;;;9.95;5.85;;;;;;;;;;5022480;28;20096;-80
2023/06/06 03:45:18;;;;;;;7.82;5.80;;;;;;;;;;5023273;28;20037;-80
2023/06/06 03:47:43;;;;;;;7.63;5.35;;;;;;;;;;5023902;28;20026;-80
2023/06/06 03:50:09;;;;;;;10.75;5.15;;;;;;;;;;5018822;28;20022;-77
2023/06/06 03:52:34;;;;;;;6.63;4.82;;;;;;;;;;5024755;28;20487;-80
2023/06/06 03:55:00;;;;;;;6.30;5.00;;;;;;;;;;5027457;28;20029;-80
2023/06/06 03:57:26;;;;;;;8.68;5.40;;;;;;;;;;5024635;28;20555;-80
2023/06/06 03:59:52;;;;;;;11.55;6.88;;;;;;;;;;5025356;28;20416;-80
2023/06/06 04:02:18;;;;;;;6.68;4.68;;;;;;;;;;5023812;28;20097;-80
2023/06/06 04:04:43;;;;;;;7.85;5.25;;;;;;;;;;5021554;28;21581;-80
2023/06/06 04:07:09;;;;;;;7.88;4.70;;;;;;;;;;5023421;28;20053;-80
2023/06/06 04:09:35;;;;;;;9.55;5.65;;;;;;;;;;5024122;28;20044;-79
2023/06/06 04:12:05;;;;;;;8.00;5.53;;;;;;;;;;5024309;28;20087;-79
2023/06/06 04:14:31;;;;;;;7.65;5.68;;;;;;;;;;5029206;28;20030;-79
2023/06/06 04:16:56;;;;;;;7.78;5.93;;;;;;;;;;5030051;28;20515;-80
2023/06/06 04:19:21;;;;;;;9.18;6.30;;;;;;;;;;5021671;28;20025;-79
2023/06/06 04:21:48;;;;;;;9.68;6.18;;;;;;;;;;5029127;28;20025;-80
2023/06/06 04:24:13;;;;;;;7.97;6.18;;;;;;;;;;5019617;28;20026;-79
2023/06/06 04:26:39;;;;;;;6.75;5.25;;;;;;;;;;5027244;28;20037;-79
2023/06/06 04:29:05;;;;;;;6.82;5.07;;;;;;;;;;5025585;28;20026;-80
2023/06/06 04:31:30;;;;;;;7.80;6.25;;;;;;;;;;5018345;28;20476;-79
2023/06/06 04:33:56;;;;;;;10.70;5.88;;;;;;;;;;5021135;28;20084;-79
2023/06/06 04:36:23;;;;;;;8.13;5.45;;;;;;;;;;5029821;28;20044;-80
2023/06/06 04:38:51;;;;;;;7.30;5.20;;;;;;;;;;5010381;28;20539;-79
2023/06/06 04:41:17;;;;;;;7.55;5.38;;;;;;;;;;5031643;28;20083;-80
2023/06/06 04:43:43;;;;;;;6.82;5.60;;;;;;;;;;5031892;28;20026;-79
2023/06/06 04:46:09;;;;;;;7.47;6.05;;;;;;;;;;5027729;28;20034;-79
2023/06/06 04:48:34;;;;;;;6.72;5.25;;;;;;;;;;5021946;28;20109;-79
2023/06/06 04:50:59;;;;;;;9.30;5.22;;;;;;;;;;5022605;28;20026;-80
2023/06/06 04:53:25;;;;;;;7.32;4.85;;;;;;;;;;5021111;28;20045;-80
2023/06/06 04:55:52;;;;;;;7.07;5.10;;;;;;;;;;5020540;28;20033;-79
2023/06/06 04:58:19;;;;;;;8.68;6.22;;;;;;;;;;5030930;28;20240;-79
2023/06/06 05:00:45;;;;;;;8.52;6.10;;;;;;;;;;5027117;28;20484;-80
2023/06/06 05:03:11;;;;;;;9.65;7.00;;;;;;;;;;5030354;28;20113;-79
2023/06/06 05:05:36;;;;;;;7.65;5.97;;;;;;;;;;5028608;28;20115;-79
2023/06/06 05:08:02;;;;;;;7.25;6.43;;;;;;;;;;5027879;28;20050;-79
2023/06/06 05:10:27;;;;;;;7.43;6.00;;;;;;;;;;5025543;28;20025;-79
2023/06/06 05:12:52;;;;;;;8.43;6.68;;;;;;;;;;5023686;28;20455;-79
2023/06/06 05:15:17;;;;;;;7.10;5.63;;;;;;;;;;5031087;28;20450;-79
2023/06/06 05:17:55;;;;;;;8.63;5.70;;;;;;;;;;5029974;28;20033;-79
2023/06/06 05:20:23;;;;;;;9.00;6.45;;;;;;;;;;5029412;28;20396;-79
2023/06/06 05:22:49;;;;;;;8.98;6.72;;;;;;;;;;5030822;28;20030;-79
2023/06/06 05:25:14;;;;;;;9.45;6.40;;;;;;;;;;5027271;28;20036;-79
2023/06/06 05:27:39;;;;;;;8.32;6.28;;;;;;;;;;5026637;28;20105;-79
2023/06/06 05:30:05;;;;;;;8.35;6.63;;;;;;;;;;5030743;28;20057;-80
2023/06/06 05:32:30;;;;;;;8.90;5.97;;;;;;;;;;5028529;28;20057;-80
2023/06/06 05:34:55;;;;;;;8.57;6.28;;;;;;;;;;5027630;28;20438;-79
2023/06/06 05:37:21;;;;;;;8.35;6.10;;;;;;;;;;5026231;28;20440;-80
2023/06/06 05:39:46;;;;;;;10.35;6.55;;;;;;;;;;5031657;28;20029;-80
2023/06/06 05:42:11;;;;;;;8.23;6.57;;;;;;;;;;5025776;28;20026;-79
2023/06/06 05:44:36;;;;;;;8.35;6.57;;;;;;;;;;5025778;28;20018;-79
2023/06/06 05:47:02;;;;;;;8.07;5.55;;;;;;;;;;5027812;28;20145;-80
2023/06/06 05:49:27;;;;;;;8.65;6.78;;;;;;;;;;5021557;28;20050;-80
2023/06/06 05:51:52;;;;;;;9.93;6.20;;;;;;;;;;5025408;28;20052;-79
2023/06/06 05:54:17;;;;;;;8.25;5.93;;;;;;;;;;5027744;28;20033;-80
2023/06/06 05:56:43;;;;;;;8.70;6.53;;;;;;;;;;5029994;28;20112;-79
2023/06/06 05:59:08;;;;;;;7.60;5.78;;;;;;;;;;5021106;28;20122;-80
2023/06/06 06:01:33;;;;;;;9.50;5.85;;;;;;;;;;5031460;28;20037;-80
2023/06/06 06:03:59;;;;;;;7.60;5.78;;;;;;;;;;5022361;28;20412;-79
2023/06/06 06:06:24;;;;;;;9.03;5.53;;;;;;;;;;5024063;28;20026;-79
2023/06/06 06:08:50;;;;;;;10.50;6.22;;;;;;;;;;5024960;28;20275;-79
2023/06/06 06:11:15;;;;;;;8.63;5.93;;;;;;;;;;5028732;28;20033;-79
2023/06/06 06:13:40;;;;;;;6.97;5.28;;;;;;;;;;5027947;28;20026;-79
2023/06/06 06:16:06;;;;;;;6.75;5.32;;;;;;;;;;5032681;28;20029;-80
2023/06/06 06:18:31;;;;;;;6.95;4.40;;;;;;;;;;5024023;28;20033;-79
2023/06/06 06:20:57;;;;;;;7.72;5.05;;;;;;;;;;5025968;28;20403;-79
2023/06/06 06:23:22;;;;;;;7.47;5.72;;;;;;;;;;5029301;28;20021;-79
2023/06/06 06:25:47;;;;;;;8.13;5.60;;;;;;;;;;5033111;28;20041;-80
2023/06/06 06:28:19;;;;;;;7.78;5.20;;;;;;;;;;5032319;28;20025;-80
2023/06/06 06:30:45;;;;;;;7.40;5.60;;;;;;;;;;5025280;28;20396;-80
2023/06/06 06:33:11;;;;;;;8.88;4.68;;;;;;;;;;5030683;28;20048;-80
2023/06/06 06:35:36;;;;;;;7.70;5.57;;;;;;;;;;5022870;23;20045;-75
2023/06/06 06:38:01;;;;;;;9.32;5.28;;;;;;;;;;5007952;28;20107;-75
2023/06/06 06:40:27;;;;;;;6.32;4.85;;;;;;;;;;5005257;28;20115;-74
2023/06/06 06:42:52;;;;;;;8.38;5.30;;;;;;;;;;5012344;28;20022;-75
2023/06/06 06:45:43;;;;;;;6.60;5.07;;;;;;;;;;4995632;28;20057;-75
2023/06/06 06:48:08;;;;;;;8.55;5.68;;;;;;;;;;5011190;28;20501;-75
2023/06/06 06:50:33;;;;;;;7.53;5.60;;;;;;;;;;5011136;28;20030;-75
2023/06/06 06:52:59;;;;;;;10.18;6.30;;;;;;;;;;5009711;28;20037;-75
2023/06/06 06:55:25;;;;;;;6.53;4.88;;;;;;;;;;5011021;28;20030;-75
2023/06/06 06:57:51;;;;;;;6.93;5.03;;;;;;;;;;5011226;28;20038;-75
2023/06/06 07:00:18;;;;;;;6.30;5.40;;;;;;;;;;5010059;28;20034;-75
2023/06/06 07:02:44;;;;;;;8.00;5.10;;;;;;;;;;5011688;28;20026;-75
2023/06/06 07:05:09;;;;;;;6.38;5.72;;;;;;;;;;5011933;28;20041;-75
2023/06/06 07:07:42;;;;;;;6.85;4.95;;;;;;;;;;5011820;28;20113;-75
2023/06/06 07:10:07;;;;;;;8.40;5.10;;;;;;;;;;5010153;28;20084;-74
2023/06/06 07:12:32;;;;;;;7.35;5.25;;;;;;;;;;5011783;28;20033;-75
2023/06/06 07:14:57;;;;;;;8.07;6.07;;;;;;;;;;5011426;28;20034;-75
2023/06/06 07:17:25;;;;;;;7.18;5.85;;;;;;;;;;5010462;28;20090;-75
2023/06/06 07:19:50;;;;;;;7.32;5.85;;;;;;;;;;5010632;28;20105;-75
2023/06/06 07:22:15;;;;;;;8.57;5.40;;;;;;;;;;5011772;28;20060;-75
2023/06/06 07:24:41;;;;;;;7.20;5.82;;;;;;;;;;5011599;28;20276;-75
2023/06/06 07:27:08;;;;;;;8.15;5.45;;;;;;;;;;5010699;28;20026;-75
2023/06/06 07:29:33;;;;;;;6.32;4.88;;;;;;;;;;5009754;28;20492;-75
2023/06/06 07:31:59;;;;;;;8.60;6.15;;;;;;;;;;5011338;28;20030;-75
2023/06/06 07:34:24;;;;;;;7.57;5.97;;;;;;;;;;5010179;28;20037;-75
2023/06/06 07:36:49;;;;;;;9.15;5.55;;;;;;;;;;5006495;28;20033;-75
2023/06/06 07:39:15;;;;;;;7.43;6.35;;;;;;;;;;5010921;28;20033;-75
2023/06/06 07:41:40;;;;;;;7.93;6.75;;;;;;;;;;5010295;28;20492;-75
2023/06/06 07:44:05;;;;;;;11.40;6.88;;;;;;;;;;5011100;28;20030;-75
2023/06/06 07:46:30;;;;;;;11.40;7.50;;;;;;;;;;5010732;28;20144;-75
2023/06/06 07:48:57;;;;;;;7.88;6.28;;;;;;;;;;5008301;28;20112;-75
2023/06/06 07:51:22;;;;;;;6.57;5.55;;;;;;;;;;5007113;28;20500;-75
2023/06/06 07:53:47;;;;;;;6.93;6.05;;;;;;;;;;5010988;28;20022;-75
2023/06/06 07:56:20;;;;;;;8.07;6.73;;;;;;;;;;5011312;28;20033;-75
2023/06/06 07:58:53;;;;;;;8.35;6.63;;;;;;;;;;5010971;28;20272;-76
2023/06/06 08:01:23;;;;;;;6.53;5.57;;;;;;;;;;5009629;28;20049;-75
2023/06/06 08:03:54;;;;;;;9.27;6.95;;;;;;;;;;5011103;28;20041;-75
2023/06/06 08:06:27;;;;;;;7.35;6.25;;;;;;;;;;5010979;28;20030;-75
2023/06/06 08:08:53;;;;;;;7.25;5.65;;;;;;;;;;5008748;28;20029;-75
2023/06/06 08:11:18;;;;;;;7.00;5.75;;;;;;;;;;5009930;28;20032;-75
2023/06/06 08:13:43;;;;;;;6.80;5.93;;;;;;;;;;5007814;28;20038;-75
2023/06/06 08:16:08;;;;;;;10.02;6.35;;;;;;;;;;5008952;28;20086;-75
2023/06/06 08:18:34;;;;;;;8.13;6.47;;;;;;;;;;5010787;28;20030;-75
2023/06/06 08:20:59;;;;;;;6.57;5.68;;;;;;;;;;5007499;28;20403;-75
2023/06/06 08:23:25;;;;;;;8.27;5.82;;;;;;;;;;5009608;28;20026;-75
2023/06/06 08:25:55;;;;;;;9.80;6.10;;;;;;;;;;5004239;28;20030;-75
2023/06/06 08:28:21;;;;;;;8.90;6.10;;;;;;;;;;5009328;28;20034;-76
2023/06/06 08:30:46;;;;;;;8.48;6.40;;;;;;;;;;5009640;28;20398;-75
2023/06/06 08:33:11;;;;;;;9.32;5.95;;;;;;;;;;5014638;28;20099;-75
2023/06/06 08:35:36;;;;;;;8.77;6.80;;;;;;;;;;5012415;28;20560;-75
2023/06/06 08:38:02;;;;;;;11.18;8.18;;;;;;;;;;5011407;28;20282;-75
2023/06/06 08:40:27;;;;;;;8.98;6.97;;;;;;;;;;5013981;28;20029;-75
2023/06/06 08:42:52;;;;;;;8.50;7.15;;;;;;;;;;5012503;28;20053;-75
2023/06/06 08:45:21;;;;;;;12.02;8.20;;;;;;;;;;5014383;28;20125;-75
2023/06/06 08:47:47;;;;;;;8.57;7.47;;;;;;;;;;5012651;28;20030;-75
2023/06/06 08:50:12;;;;;;;10.13;7.55;;;;;;;;;;5011783;28;20032;-75
2023/06/06 08:52:39;;;;;;;10.27;6.78;;;;;;;;;;5014382;28;20108;-75
2023/06/06 08:55:04;;;;;;;9.18;7.38;;;;;;;;;;5013553;28;20522;-75
2023/06/06 08:57:30;;;;;;;11.43;7.30;;;;;;;;;;5011492;28;20112;-75
2023/06/06 08:59:56;;;;;;;9.48;7.00;;;;;;;;;;5013536;28;20060;-75
2023/06/06 09:02:22;;;;;;;9.50;7.90;;;;;;;;;;5011008;28;20113;-75
2023/06/06 09:04:48;;;;;;;8.98;7.78;;;;;;;;;;5010935;28;20037;-75
2023/06/06 09:07:14;;;;;;;8.82;7.03;;;;;;;;;;5012540;28;20052;-75
2023/06/06 09:09:45;;;;;;;10.05;6.82;;;;;;;;;;5010639;28;20104;-75
2023/06/06 09:12:10;;;;;;;9.63;7.13;;;;;;;;;;5012497;28;20029;-75
2023/06/06 09:14:35;;;;;;;13.13;11.02;;;;;;;;;;5014244;28;20461;-75
2023/06/06 09:17:01;;;;;;;9.20;7.00;;;;;;;;;;5011082;28;20153;-75
2023/06/06 09:19:26;;;;;;;7.57;6.78;;;;;;;;;;5013877;28;20539;-76
2023/06/06 09:21:52;;;;;;;9.38;7.70;;;;;;;;;;5013033;28;20064;-75
2023/06/06 09:24:18;;;;;;;10.38;8.93;;;;;;;;;;5014138;28;20112;-76
2023/06/06 09:26:43;;;;;;;14.85;11.20;;;;;;;;;;5013760;28;20021;-76
2023/06/06 09:29:08;;;;;;;9.30;8.30;;;;;;;;;;5013518;28;20038;-75
2023/06/06 09:31:37;;;;;;;8.10;6.18;;;;;;;;;;5012339;28;20280;-75
2023/06/06 09:34:03;;;;;;;7.95;6.60;;;;;;;;;;5011464;28;20045;-76
2023/06/06 09:36:29;;;;;;;7.65;6.50;;;;;;;;;;5011814;28;20033;-76
2023/06/06 09:38:55;;;;;;;7.53;6.60;;;;;;;;;;5011835;28;20029;-75
2023/06/06 09:41:24;;;;;;;7.97;6.43;;;;;;;;;;5010294;28;20037;-76
2023/06/06 09:43:49;;;;;;;7.05;6.18;;;;;;;;;;5011653;28;20536;-76
2023/06/06 09:46:17;;;;;;;10.70;9.60;;;;;;;;;;5012540;28;20034;-76
2023/06/06 09:48:52;;;;;;;11.77;7.55;;;;;;;;;;5012270;28;20053;-75
2023/06/06 09:51:17;;;;;;;7.10;6.40;;;;;;;;;;5006589;28;20037;-76
2023/06/06 09:53:50;;;;;;;8.13;6.93;;;;;;;;;;5011549;28;20118;-76
2023/06/06 09:56:16;;;;;;;8.75;6.70;;;;;;;;;;5012014;28;20794;-76
2023/06/06 09:58:41;;;;;;;8.82;7.38;;;;;;;;;;5012820;28;20141;-76
2023/06/06 10:01:07;;;;;;;7.68;6.15;;;;;;;;;;5012997;28;20552;-76
2023/06/06 10:03:36;;;;;;;8.13;6.07;;;;;;;;;;5013001;28;20014;-76
2023/06/06 10:06:03;;;;;;;7.72;6.55;;;;;;;;;;5011937;28;20573;-76
2023/06/06 10:08:29;;;;;;;10.00;6.03;;;;;;;;;;5013225;28;20041;-76
2023/06/06 10:10:54;;;;;;;11.95;8.80;;;;;;;;;;5010960;28;20057;-76
2023/06/06 10:13:22;;;;;;;9.38;7.22;;;;;;;;;;5012921;28;20552;-76
2023/06/06 10:15:48;;;;;;;7.70;6.68;;;;;;;;;;5013073;28;20030;-76
2023/06/06 10:18:14;;;;;;;8.77;7.95;;;;;;;;;;5011721;28;20029;-76
2023/06/06 10:20:40;;;;;;;9.63;8.63;;;;;;;;;;5012775;28;20022;-76
2023/06/06 10:23:05;;;;;;;8.85;6.38;;;;;;;;;;5008090;28;20100;-76
2023/06/06 10:25:31;;;;;;;10.82;9.70;;;;;;;;;;5010927;28;20121;-76
2023/06/06 10:28:08;;;;;;;9.40;8.40;;;;;;;;;;5007777;28;20030;-76
2023/06/06 10:30:40;;;;;;;6.80;5.63;;;;;;;;;;5012319;28;20048;-76
2023/06/06 10:33:06;;;;;;;10.25;7.95;;;;;;;;;;5012632;28;20030;-76
2023/06/06 10:35:31;;;;;;;9.93;8.93;;;;;;;;;;5012417;28;20096;-76
2023/06/06 10:38:01;;;;;;;9.18;7.38;;;;;;;;;;5011302;28;20037;-75
2023/06/06 10:40:26;;;;;;;7.18;5.38;;;;;;;;;;5010952;28;20045;-76
2023/06/06 10:42:53;;;;;;;9.52;7.75;;;;;;;;;;5012236;28;20026;-76
2023/06/06 10:45:38;;;;;;;7.47;6.35;;;;;;;;;;5012481;28;20030;-76
2023/06/06 10:48:04;;;;;;;6.95;5.35;;;;;;;;;;5012204;28;20022;-76
2023/06/06 10:50:30;;;;;;;6.57;4.43;;;;;;;;;;5011687;28;20055;-77
2023/06/06 10:52:57;;;;;;;9.00;7.25;;;;;;;;;;5010341;28;20481;-76
2023/06/06 10:55:22;;;;;;;11.43;10.18;;;;;;;;;;5007856;28;20634;-76
2023/06/06 10:58:03;;;;;;;7.87;6.53;;;;;;;;;;5012080;28;20116;-75
2023/06/06 11:00:31;;;;;;;9.48;6.53;;;;;;;;;;5010663;28;20034;-76
2023/06/06 11:02:58;;;;;;;8.15;7.15;;;;;;;;;;5011702;28;20164;-76
2023/06/06 11:05:23;;;;;;;9.20;8.30;;;;;;;;;;5012053;28;20038;-76
2023/06/06 11:07:52;;;;;;;8.77;7.00;;;;;;;;;;5010334;28;20018;-76
2023/06/06 11:10:23;;;;;;;6.95;5.65;;;;;;;;;;5009121;28;20033;-76
2023/06/06 11:12:52;;;;;;;7.72;6.40;;;;;;;;;;5009140;28;20053;-76
2023/06/06 11:15:30;;;;;;;8.50;7.18;;;;;;;;;;5011836;28;20527;-76
2023/06/06 11:18:04;;;;;;;11.07;8.48;;;;;;;24.90;58.46;100840.56;5064431;28;20379;-76
2023/06/06 11:20:41;;;;;;;10.85;9.32;;;;;;;25.18;57.60;100838.03;5058703;28;20403;-76
2023/06/06 11:23:10;;;;;;;9.43;7.70;;;;;;;25.34;58.25;100831.56;5052165;28;20033;-76
2023/06/06 11:25:37;;;;;;;8.25;7.43;;;;;;;-145.41;100.00;58600.66;5043864;28;20038;-76
2023/06/06 11:28:03;;;;;;;8.45;6.78;;;;;;;-145.41;100.00;58600.66;5028045;28;20037;-76
2023/06/06 11:30:33;;;;;;;7.70;6.90;;;;;;;-145.41;100.00;58600.66;5026656;28;20038;-76
2023/06/06 11:33:00;;;;;;;9.93;8.80;;;;;;;-145.41;100.00;58600.66;5028033;28;20029;-76
2023/06/06 11:35:28;;;;;;;11.38;8.02;;;;;;;-145.41;100.00;58600.66;5027506;28;20464;-76
2023/06/06 11:37:54;;;;;;;7.25;6.53;;;;;;;-145.41;100.00;58600.66;5027648;28;20038;-76
2023/06/06 11:40:20;;;;;;;7.82;5.57;;;;;;;-145.41;100.00;58600.66;5026240;28;20030;-76
2023/06/06 11:42:45;;;;;;;8.32;5.28;;;;;;;-145.41;100.00;58600.66;5027809;28;20053;-76
2023/06/06 11:45:17;;;;;;;6.63;4.65;;;;;;;-145.41;100.00;58600.66;5026286;28;20519;-76
2023/06/06 11:47:44;;;;;;;8.05;6.47;;;;;;;-145.41;100.00;58600.66;5023220;28;20037;-76
2023/06/06 11:50:10;;;;;;;9.35;6.97;;;;;;;-145.41;100.00;58600.66;5027309;28;20176;-76
2023/06/06 11:52:47;;;;;;;9.50;6.60;;;;;;;-145.41;100.00;58600.66;5027465;28;20176;-76
2023/06/06 11:55:13;;;;;;;6.18;5.55;;;;;;;-145.41;100.00;58600.66;5025155;28;20113;-76
2023/06/06 11:57:39;;;;;;;7.70;6.85;;;;;;;-145.41;100.00;58600.66;5027413;28;20109;-75
2023/06/06 12:00:19;;;;;;;11.38;10.25;;;;;;;-145.41;100.00;58600.66;5027361;28;20579;-76
2023/06/06 12:02:52;;;;;;;11.25;10.20;;;;;;;-145.41;100.00;58600.66;5027704;28;20090;-76
2023/06/06 12:05:24;;;;;;;7.57;6.78;;;;;;;-145.41;100.00;58600.66;5025202;28;20117;-76
2023/06/06 12:07:50;;;;;;;9.82;8.93;;;;;;;-145.41;100.00;58600.66;5023914;28;20030;-76
2023/06/06 12:10:23;;;;;;;10.60;9.13;;;;;;;-145.41;100.00;58600.66;5027116;28;20843;-76
2023/06/06 12:12:49;;;;;;;10.50;9.45;;;;;;;-145.41;100.00;58600.66;5025269;28;20072;-76
2023/06/06 12:15:15;;;;;;;11.80;10.73;;;;;;;-145.41;100.00;58600.66;5026725;28;20448;-76
2023/06/06 12:17:40;;;;;;;9.45;8.55;;;;;;;-145.41;100.00;58600.66;5026938;28;20091;-76
2023/06/06 12:20:06;;;;;;;12.98;9.30;;;;;;;-145.41;100.00;58600.66;5026804;28;20044;-76
2023/06/06 12:22:34;;;;;;;10.00;8.32;;;;;;;-145.41;100.00;58600.66;5026945;28;20060;-76
2023/06/06 12:24:59;;;;;;;9.52;8.13;;;;;;;-145.41;100.00;58600.66;5027112;28;20033;-76
2023/06/06 12:27:26;;;;;;;11.32;10.23;;;;;;;-145.41;100.00;58600.66;5024811;28;20026;-76
2023/06/06 12:29:54;;;;;;;10.68;9.57;;;;;;;-145.41;100.00;58600.66;5013351;28;20044;-76
2023/06/06 12:32:25;;;;;;;9.77;8.77;;;;;;;-145.41;100.00;58600.66;5012811;28;20052;-76
2023/06/06 12:34:59;;;;;;;11.77;10.57;;;;;;;-145.41;100.00;58600.66;5012589;28;20049;-76
2023/06/06 12:37:41;;;;;;;13.00;11.80;;;;;;;-145.41;100.00;58600.66;5009873;28;20038;-76
2023/06/06 12:40:14;;;;;;;12.05;10.52;;;;;;;-145.41;100.00;58600.66;5013205;28;20042;-76
2023/06/06 12:42:40;;;;;;;14.45;12.95;;;;;;;-145.41;100.00;58600.66;5013392;28;20064;-76
2023/06/06 12:45:07;;;;;;;12.00;10.80;;;;;;;-145.41;100.00;58600.66;5012460;28;20091;-76
2023/06/06 12:47:33;;;;;;;13.07;11.88;;;;;;;-145.41;100.00;58600.66;5012038;28;20037;-76
2023/06/06 12:50:00;;;;;;;10.20;9.07;;;;;;;-145.41;100.00;58600.66;5013063;28;20045;-76
2023/06/06 12:52:26;;;;;;;11.60;10.40;;;;;;;-145.41;100.00;58600.66;5012598;28;20108;-76
2023/06/06 12:54:51;;;;;;;11.73;10.55;;;;;;;-145.41;100.00;58600.66;5008868;28;20152;-76
2023/06/06 12:57:17;;;;;;;8.43;7.53;;;;;;;-145.41;100.00;58600.66;5010527;28;20476;-76
2023/06/06 12:59:44;;;;;;;10.25;9.32;;;;;;;-145.41;100.00;58600.66;5010827;28;20575;-76
2023/06/06 13:02:10;;;;;;;12.10;10.85;;;;;;;-145.41;100.00;58600.66;5012747;28;20115;-76
2023/06/06 13:04:37;;;;;;;14.93;13.52;;;;;;;-145.41;100.00;58600.66;5012459;28;20041;-76
2023/06/06 13:07:04;;;;;;;15.80;14.30;;;;;;;-145.41;100.00;58600.66;5013221;28;20038;-76
2023/06/06 13:09:30;;;;;;;13.68;12.38;;;;;;;-145.41;100.00;58600.66;5012984;28;20034;-76
2023/06/06 13:11:55;;;;;;;14.57;13.07;;;;;;;-145.41;100.00;58600.66;5012514;28;20030;-76
2023/06/06 13:14:21;;;;;;;18.15;16.35;;;;;;;-145.41;100.00;58600.66;5013137;28;20448;-75
2023/06/06 13:16:48;;;;;;;20.58;18.58;;;;;;;-145.41;100.00;58600.66;5012743;28;20033;-76
2023/06/06 13:19:14;;;;;;;23.35;20.90;;;;;;;-145.41;100.00;58600.66;5012679;28;20045;-76
2023/06/06 13:21:39;;;;;;;16.90;15.32;;;;;;;-145.41;100.00;58600.66;5011802;28;20038;-76
2023/06/06 13:24:04;;;;;;;17.52;15.73;;;;;;;-145.41;100.00;58600.66;5012992;28;20104;-76
2023/06/06 13:26:30;;;;;;;15.55;14.05;;;;;;;-145.41;100.00;58600.66;5012617;28;20034;-76
2023/06/06 13:28:55;;;;;;;17.90;16.15;;;;;;;-145.41;100.00;58600.66;5012644;28;20116;-76
2023/06/06 13:31:20;;;;;;;14.90;13.40;;;;;;;-145.41;100.00;58600.66;5008654;28;20069;-76
2023/06/06 13:33:46;;;;;;;11.18;9.93;;;;;;;-145.41;100.00;58600.66;5010616;28;20057;-76
2023/06/06 13:36:11;;;;;;;11.60;10.40;;;;;;;-145.41;100.00;58600.66;5011768;28;20416;-76
2023/06/06 13:38:36;;;;;;;11.50;10.30;;;;;;;-145.41;100.00;58600.66;5011349;28;20061;-76
2023/06/06 13:41:02;;;;;;;13.13;11.82;;;;;;;-145.41;100.00;58600.66;5009015;28;20062;-76
2023/06/06 13:43:27;;;;;;;10.55;9.55;;;;;;;-145.41;100.00;58600.66;5012467;28;20026;-76
2023/06/06 13:45:52;;;;;;;11.18;10.07;;;;;;;-145.41;100.00;58600.66;5010435;28;20038;-76
2023/06/06 13:48:18;;;;;;;12.05;10.88;;;;;;;-145.41;100.00;58600.66;5008389;28;20045;-76